Time;durP1;ratioP1;P1;durP2;ratioP2;P2;SDS_P1;SDS_P2;PMS_P1;PMS_P2;Temp;Humidity;BMP_temperature;BMP_pressure;BME280_temperature;BME280_humidity;BME280_pressure;Samples;Min_cycle;Max_cycle;Signal;HPM_P1;HPM_P2
2022/01/07 00:02:22;;;;;;;0.77;0.77;;;-0.40;99.90;;;;;;5300860;27;20077;-72
2022/01/07 00:04:59;;;;;;;0.40;0.40;;;-0.60;99.90;;;;;;5274069;27;20781;-72
2022/01/07 00:07:30;;;;;;;0.33;0.33;;;-0.60;99.90;;;;;;5288455;27;20044;-71
2022/01/07 00:10:07;;;;;;;0.50;0.50;;;-0.70;99.90;;;;;;5279059;28;20032;-72
2022/01/07 00:12:40;;;;;;;0.57;0.57;;;-0.90;99.90;;;;;;5262329;28;20027;-72
2022/01/07 00:15:14;;;;;;;0.77;0.77;;;-1.10;99.90;;;;;;5261458;28;20039;-72
2022/01/07 00:17:50;;;;;;;0.60;0.60;;;-1.10;99.90;;;;;;5279970;28;20031;-72
2022/01/07 00:20:26;;;;;;;0.50;0.50;;;-1.20;99.90;;;;;;5272492;28;20019;-72
2022/01/07 00:22:58;;;;;;;0.50;0.50;;;-1.40;99.90;;;;;;5263371;28;20038;-71
2022/01/07 00:25:31;;;;;;;0.40;0.40;;;-1.60;99.90;;;;;;5245470;28;20059;-72
2022/01/07 00:28:06;;;;;;;0.50;0.50;;;-1.80;99.90;;;;;;5263689;28;20110;-72
2022/01/07 00:30:40;;;;;;;0.55;0.55;;;-1.90;99.90;;;;;;5279669;28;20054;-71
2022/01/07 00:33:12;;;;;;;1.13;1.13;;;-2.00;99.90;;;;;;5244309;28;20035;-71
2022/01/07 00:35:43;;;;;;;0.40;0.40;;;-2.20;99.90;;;;;;5261363;28;20059;-72
2022/01/07 00:38:16;;;;;;;0.40;0.40;;;-2.20;99.90;;;;;;5261588;28;20452;-71
2022/01/07 00:40:50;;;;;;;0.50;0.50;;;-2.40;99.90;;;;;;5279434;28;20027;-71
2022/01/07 00:43:27;;;;;;;0.50;0.50;;;-2.30;99.90;;;;;;5261015;28;20268;-71
2022/01/07 00:45:58;;;;;;;0.50;0.50;;;-2.30;99.90;;;;;;5280303;28;20035;-73
2022/01/07 00:48:32;;;;;;;0.73;0.73;;;-2.10;99.90;;;;;;5261301;28;20496;-71
2022/01/07 00:51:03;;;;;;;0.50;0.50;;;-2.20;99.90;;;;;;5233013;28;20225;-71
2022/01/07 00:53:34;;;;;;;0.40;0.40;;;-2.10;99.90;;;;;;5264888;28;20027;-71
2022/01/07 00:56:04;;;;;;;0.60;0.60;;;-2.10;99.90;;;;;;5281469;27;20539;-72
2022/01/07 00:58:38;;;;;;;0.50;0.50;;;-1.90;99.90;;;;;;5282831;27;20039;-71
2022/01/07 01:01:15;;;;;;;0.40;0.40;;;-1.90;99.90;;;;;;5272542;28;20032;-72
2022/01/07 01:03:48;;;;;;;0.50;0.50;;;-2.00;99.90;;;;;;5281851;28;20028;-72
2022/01/07 01:06:25;;;;;;;0.50;0.50;;;-2.10;99.90;;;;;;5279478;27;20056;-72
2022/01/07 01:08:55;;;;;;;0.60;0.60;;;-2.20;99.90;;;;;;5252176;28;20279;-72
2022/01/07 01:11:27;;;;;;;0.50;0.50;;;-2.20;99.90;;;;;;5282465;28;20023;-71
2022/01/07 01:14:01;;;;;;;0.30;0.30;;;-2.20;99.90;;;;;;5265336;28;20538;-72
2022/01/07 01:16:37;;;;;;;;;;;-2.20;99.90;;;;;;5257279;28;20039;-72
2022/01/07 01:19:13;;;;;;;0.43;0.43;;;-2.30;99.90;;;;;;5248190;28;19912;-72
2022/01/07 01:21:44;;;;;;;0.50;0.50;;;-2.40;99.90;;;;;;5278562;28;20039;-72
2022/01/07 01:24:24;;;;;;;0.93;0.93;;;-2.40;99.90;;;;;;5282524;27;20055;-72
2022/01/07 01:26:55;;;;;;;0.50;0.50;;;-2.40;99.90;;;;;;5281929;28;20053;-74
2022/01/07 01:29:35;;;;;;;0.40;0.40;;;-2.40;99.90;;;;;;5264874;28;20084;-73
2022/01/07 01:32:10;;;;;;;0.40;0.40;;;-2.50;99.90;;;;;;5263582;28;20526;-72
2022/01/07 01:34:44;;;;;;;0.47;0.47;;;-2.50;99.90;;;;;;5252453;28;20024;-71
2022/01/07 01:37:15;;;;;;;0.50;0.50;;;-2.50;99.90;;;;;;5294999;27;20022;-72
2022/01/07 01:39:48;;;;;;;0.70;0.70;;;-2.50;99.90;;;;;;5263025;28;20036;-72
2022/01/07 01:42:24;;;;;;;0.50;0.50;;;-2.60;99.90;;;;;;5281665;28;20595;-71
2022/01/07 01:44:55;;;;;;;0.50;0.50;;;-2.70;99.90;;;;;;5265221;28;20285;-71
2022/01/07 01:47:29;;;;;;;0.67;0.67;;;-2.70;99.90;;;;;;5264726;28;20127;-71
2022/01/07 01:50:00;;;;;;;0.35;0.35;;;-2.80;99.90;;;;;;5283518;28;20042;-72
2022/01/07 01:52:38;;;;;;;0.50;0.50;;;-2.80;99.90;;;;;;5263800;28;20066;-72
2022/01/07 01:55:11;;;;;;;0.50;0.50;;;-2.80;99.90;;;;;;5279198;27;20442;-73
2022/01/07 01:57:43;;;;;;;0.43;0.43;;;-2.90;99.90;;;;;;5261858;28;20070;-72
2022/01/07 02:00:20;;;;;;;0.50;0.50;;;-3.00;99.90;;;;;;5254852;28;20577;-72
2022/01/07 02:02:51;;;;;;;0.47;0.47;;;-2.90;99.90;;;;;;5263380;28;20028;-72
2022/01/07 02:05:27;;;;;;;0.50;0.50;;;-2.80;99.90;;;;;;5263148;27;20411;-72
2022/01/07 02:08:03;;;;;;;0.50;0.50;;;-2.90;99.90;;;;;;5269824;28;20138;-72
2022/01/07 02:10:42;;;;;;;0.50;0.50;;;-2.90;99.90;;;;;;5279300;28;20204;-72
2022/01/07 02:13:19;;;;;;;0.47;0.47;;;-3.00;99.90;;;;;;5282592;28;20057;-72
2022/01/07 02:15:50;;;;;;;0.40;0.40;;;-3.00;99.90;;;;;;5282584;28;20035;-73
2022/01/07 02:18:23;;;;;;;0.50;0.50;;;-3.10;99.90;;;;;;5247397;28;20046;-72
2022/01/07 02:20:56;;;;;;;0.40;0.40;;;-3.20;99.90;;;;;;5247336;28;20027;-71
2022/01/07 02:23:33;;;;;;;0.60;0.60;;;-3.20;99.90;;;;;;5265528;28;20039;-71
2022/01/07 02:26:03;;;;;;;0.57;0.57;;;-3.20;99.90;;;;;;5248051;28;20115;-74
2022/01/07 02:28:38;;;;;;;1.50;1.40;;;-3.20;99.90;;;;;;5246170;28;20066;-72
2022/01/07 02:31:12;;;;;;;0.70;0.70;;;-3.20;99.90;;;;;;5263258;28;20608;-71
2022/01/07 02:33:48;;;;;;;0.55;0.55;;;-3.30;99.90;;;;;;5280853;28;20031;-71
2022/01/07 02:36:21;;;;;;;0.50;0.50;;;-3.10;99.90;;;;;;5263405;28;20053;-72
2022/01/07 02:38:53;;;;;;;0.60;0.60;;;-3.20;99.90;;;;;;5261627;28;20043;-72
2022/01/07 02:41:24;;;;;;;0.87;0.87;;;-3.30;99.90;;;;;;5247850;27;20051;-72
2022/01/07 02:43:55;;;;;;;0.40;0.40;;;-3.20;99.90;;;;;;5262995;28;20047;-72
2022/01/07 02:46:25;;;;;;;0.40;0.40;;;-3.30;99.90;;;;;;5261697;28;20028;-71
2022/01/07 02:48:59;;;;;;;0.60;0.60;;;-3.40;99.90;;;;;;5281019;28;20024;-72
2022/01/07 02:51:30;;;;;;;0.55;0.55;;;-3.50;99.90;;;;;;5244803;27;20047;-71
2022/01/07 02:54:01;;;;;;;0.80;0.80;;;-3.60;99.90;;;;;;5261751;28;20043;-71
2022/01/07 02:56:33;;;;;;;0.53;0.53;;;-3.70;99.90;;;;;;5279420;28;20033;-71
2022/01/07 02:59:08;;;;;;;0.60;0.60;;;-3.70;99.90;;;;;;5270304;28;20096;-72
2022/01/07 03:01:40;;;;;;;0.50;0.50;;;-3.70;99.90;;;;;;5245295;28;20037;-72
2022/01/07 03:04:12;;;;;;;0.50;0.50;;;-3.70;99.90;;;;;;5237495;28;20031;-71
2022/01/07 03:06:46;;;;;;;0.40;0.40;;;-3.70;99.90;;;;;;5260911;28;20075;-72
2022/01/07 03:09:17;;;;;;;;;;;-3.70;99.90;;;;;;5261694;28;20031;-72
2022/01/07 03:11:50;;;;;;;0.57;0.57;;;-3.60;99.90;;;;;;5281177;27;19916;-71
2022/01/07 03:14:27;;;;;;;0.50;0.50;;;-3.60;99.90;;;;;;5261422;28;20059;-74
2022/01/07 03:17:01;;;;;;;0.60;0.60;;;-3.60;99.90;;;;;;5278436;28;20027;-72
2022/01/07 03:19:32;;;;;;;0.60;0.60;;;-3.70;99.90;;;;;;5246772;28;20508;-72
2022/01/07 03:22:05;;;;;;;0.50;0.50;;;-3.70;99.90;;;;;;5262304;28;20032;-71
2022/01/07 03:24:38;;;;;;;0.50;0.50;;;-3.70;99.90;;;;;;5262520;28;20039;-71
2022/01/07 03:27:13;;;;;;;0.50;0.50;;;-3.70;99.90;;;;;;5260916;28;20474;-71
2022/01/07 03:29:49;;;;;;;0.47;0.47;;;-3.70;99.90;;;;;;5261359;28;20044;-72
2022/01/07 03:32:20;;;;;;;0.50;0.50;;;-3.70;99.90;;;;;;5271822;28;20341;-72
2022/01/07 03:34:55;;;;;;;0.47;0.47;;;-3.70;99.90;;;;;;5262253;28;20035;-72
2022/01/07 03:37:34;;;;;;;0.40;0.40;;;-3.70;99.90;;;;;;5252575;27;20020;-72
2022/01/07 03:40:12;;;;;;;0.97;0.83;;;-3.70;99.90;;;;;;5281297;27;20258;-72
2022/01/07 03:42:45;;;;;;;0.53;0.53;;;-3.80;99.90;;;;;;5280508;28;20031;-72
2022/01/07 03:45:21;;;;;;;0.77;0.77;;;-3.90;99.90;;;;;;5263662;28;20051;-72
2022/01/07 03:47:56;;;;;;;0.50;0.50;;;-4.00;99.90;;;;;;5261799;28;20020;-72
2022/01/07 03:50:32;;;;;;;0.60;0.60;;;-4.00;99.90;;;;;;5281460;27;20043;-72
2022/01/07 03:53:13;;;;;;;0.67;0.67;;;-4.00;99.90;;;;;;5245287;28;20099;-72
2022/01/07 03:55:44;;;;;;;0.70;0.70;;;-4.00;99.90;;;;;;5279154;28;20086;-72
2022/01/07 03:58:17;;;;;;;0.60;0.60;;;-3.90;99.90;;;;;;5261737;28;20035;-72
2022/01/07 04:00:49;;;;;;;0.40;0.40;;;-3.90;99.90;;;;;;5261706;28;20027;-71
2022/01/07 04:03:19;;;;;;;0.30;0.30;;;-3.90;99.90;;;;;;5281607;27;20058;-71
2022/01/07 04:05:56;;;;;;;0.50;0.50;;;-3.90;99.90;;;;;;5249687;28;20550;-71
2022/01/07 04:08:31;;;;;;;0.50;0.50;;;-3.90;99.90;;;;;;5270724;28;20034;-73
2022/01/07 04:11:07;;;;;;;0.50;0.50;;;-3.90;99.90;;;;;;5254507;28;20385;-71
2022/01/07 04:13:38;;;;;;;0.50;0.50;;;-3.90;99.90;;;;;;5260948;28;20096;-71
2022/01/07 04:16:12;;;;;;;0.50;0.50;;;-4.00;99.90;;;;;;5245017;28;20473;-72
2022/01/07 04:18:44;;;;;;;0.38;0.38;;;-4.00;99.90;;;;;;5261002;28;20114;-71
2022/01/07 04:21:16;;;;;;;0.40;0.40;;;-3.90;99.90;;;;;;5261726;28;20039;-72
2022/01/07 04:23:47;;;;;;;0.50;0.50;;;-4.00;99.90;;;;;;5261490;28;20500;-72
2022/01/07 04:26:20;;;;;;;1.53;1.43;;;-4.10;99.90;;;;;;5260876;28;20051;-72
2022/01/07 04:28:53;;;;;;;0.52;0.52;;;-4.10;99.90;;;;;;5278952;28;20076;-72
2022/01/07 04:31:28;;;;;;;0.50;0.50;;;-4.10;99.90;;;;;;5276781;28;20035;-71
2022/01/07 04:34:01;;;;;;;0.40;0.40;;;-4.00;99.90;;;;;;5244618;28;20432;-71
2022/01/07 04:36:32;;;;;;;0.70;0.70;;;-4.10;99.90;;;;;;5228730;28;20521;-71
2022/01/07 04:39:07;;;;;;;0.47;0.47;;;-4.10;99.90;;;;;;5261154;28;20027;-72
2022/01/07 04:41:43;;;;;;;;;;;-4.10;99.90;;;;;;5278793;28;20414;-71
2022/01/07 04:44:14;;;;;;;0.50;0.50;;;-4.00;99.90;;;;;;5244411;28;19918;-72
2022/01/07 04:46:46;;;;;;;0.57;0.57;;;-4.20;99.90;;;;;;5276730;28;20271;-72
2022/01/07 04:49:20;;;;;;;0.70;0.70;;;-4.30;99.90;;;;;;5245724;28;20065;-72
2022/01/07 04:51:53;;;;;;;0.50;0.50;;;-4.30;99.90;;;;;;5261773;28;20568;-72
2022/01/07 04:54:24;;;;;;;3.40;3.13;;;-4.40;99.90;;;;;;5279213;28;20617;-72
2022/01/07 04:57:01;;;;;;;0.50;0.50;;;-4.40;99.90;;;;;;5261344;28;20043;-71
2022/01/07 04:59:34;;;;;;;0.50;0.50;;;-4.50;99.90;;;;;;5279133;28;20030;-72
2022/01/07 05:02:06;;;;;;;0.67;0.67;;;-4.50;99.90;;;;;;5278135;28;20319;-72
2022/01/07 05:04:38;;;;;;;0.60;0.60;;;-4.60;99.90;;;;;;5268584;28;20545;-72
2022/01/07 05:07:11;;;;;;;0.43;0.43;;;-4.60;99.90;;;;;;5260067;28;20023;-72
2022/01/07 05:09:48;;;;;;;0.60;0.60;;;-4.70;99.90;;;;;;5272285;28;20034;-72
2022/01/07 05:12:19;;;;;;;0.40;0.40;;;-4.80;99.90;;;;;;5278591;28;20044;-71
2022/01/07 05:14:52;;;;;;;0.50;0.50;;;-4.80;99.90;;;;;;5278448;28;20485;-71
2022/01/07 05:17:23;;;;;;;1.08;1.08;;;-4.90;99.90;;;;;;5273963;28;20023;-71
2022/01/07 05:19:59;;;;;;;0.60;0.60;;;-4.90;99.90;;;;;;5261515;28;20611;-71
2022/01/07 05:22:36;;;;;;;0.57;0.57;;;-5.00;99.90;;;;;;5244913;28;20343;-71
2022/01/07 05:25:09;;;;;;;0.50;0.50;;;-5.00;99.90;;;;;;5279286;28;20042;-71
2022/01/07 05:27:43;;;;;;;2.58;2.35;;;-4.90;99.90;;;;;;5278395;28;20081;-71
2022/01/07 05:30:15;;;;;;;0.63;0.63;;;-5.00;99.90;;;;;;5260691;28;20031;-71
2022/01/07 05:32:45;;;;;;;0.50;0.50;;;-5.00;99.90;;;;;;5260560;28;20334;-73
2022/01/07 05:35:16;;;;;;;0.40;0.40;;;-5.00;99.90;;;;;;5278881;28;20026;-71
2022/01/07 05:37:52;;;;;;;0.90;0.90;;;-5.00;99.90;;;;;;5264836;28;20023;-71
2022/01/07 05:40:25;;;;;;;0.40;0.40;;;-5.00;99.90;;;;;;5264790;28;20040;-71
2022/01/07 05:42:56;;;;;;;0.80;0.80;;;-4.90;99.90;;;;;;5282058;28;20031;-71
2022/01/07 05:45:28;;;;;;;0.80;0.80;;;-4.80;99.90;;;;;;5279787;28;20510;-71
2022/01/07 05:48:03;;;;;;;0.40;0.40;;;-4.80;99.90;;;;;;5281753;28;20100;-71
2022/01/07 05:50:34;;;;;;;0.50;0.50;;;-4.80;99.90;;;;;;5283095;28;20034;-72
2022/01/07 05:53:06;;;;;;;0.60;0.60;;;-4.80;99.90;;;;;;5282804;28;20035;-72
2022/01/07 05:55:39;;;;;;;0.47;0.47;;;-4.80;99.90;;;;;;5281816;28;20456;-71
2022/01/07 05:58:13;;;;;;;0.70;0.70;;;-4.80;99.90;;;;;;5248878;28;20085;-71
2022/01/07 06:00:44;;;;;;;0.50;0.50;;;-4.90;99.90;;;;;;5282443;28;20053;-71
2022/01/07 06:03:20;;;;;;;0.60;0.60;;;-4.90;99.90;;;;;;5265091;28;20044;-71
2022/01/07 06:05:53;;;;;;;0.50;0.50;;;-5.00;99.90;;;;;;5256240;28;20051;-71
2022/01/07 06:08:26;;;;;;;0.70;0.70;;;-5.10;99.90;;;;;;5238679;28;20464;-73
2022/01/07 06:10:58;;;;;;;0.50;0.50;;;-5.10;99.90;;;;;;5272214;28;20081;-71
2022/01/07 06:13:31;;;;;;;0.53;0.53;;;-5.10;99.90;;;;;;5243405;28;20256;-71
2022/01/07 06:16:02;;;;;;;0.50;0.50;;;-5.10;99.90;;;;;;5242186;28;20036;-71
2022/01/07 06:18:57;;;;;;;0.60;0.60;;;-5.00;99.90;;;;;;5260947;28;20023;-71
2022/01/07 06:21:35;;;;;;;0.60;0.60;;;-5.10;99.90;;;;;;5260518;28;20548;-71
2022/01/07 06:24:07;;;;;;;0.50;0.50;;;-5.20;99.90;;;;;;5261253;28;20055;-73
2022/01/07 06:26:41;;;;;;;1.53;1.43;;;-5.30;99.90;;;;;;5260375;28;20035;-71
2022/01/07 06:29:11;;;;;;;;;;;-5.20;99.90;;;;;;5260780;28;20051;-71
2022/01/07 06:31:42;;;;;;;1.43;1.43;;;-5.30;99.90;;;;;;5260945;28;19912;-72
2022/01/07 06:34:18;;;;;;;0.60;0.60;;;-5.20;99.90;;;;;;5262759;28;20020;-71
2022/01/07 06:36:54;;;;;;;0.93;0.93;;;-5.20;99.90;;;;;;5263998;28;20031;-71
2022/01/07 06:39:32;;;;;;;0.70;0.70;;;-5.10;99.90;;;;;;5262787;28;20035;-71
2022/01/07 06:42:06;;;;;;;0.60;0.60;;;-5.10;99.90;;;;;;5261697;28;20043;-72
2022/01/07 06:44:37;;;;;;;0.50;0.50;;;-5.00;99.90;;;;;;5260883;28;20035;-72
2022/01/07 06:47:11;;;;;;;0.60;0.60;;;-5.00;99.90;;;;;;5260486;28;20062;-72
2022/01/07 06:49:47;;;;;;;0.60;0.60;;;-4.90;99.90;;;;;;5257555;28;20108;-72
2022/01/07 06:52:18;;;;;;;0.50;0.50;;;-4.90;99.90;;;;;;5261526;28;20110;-72
2022/01/07 06:55:00;;;;;;;0.70;0.70;;;-5.00;99.90;;;;;;5262161;28;20039;-72
2022/01/07 06:57:34;;;;;;;0.70;0.70;;;-5.00;99.90;;;;;;5262579;28;20032;-72
2022/01/07 07:00:05;;;;;;;0.60;0.60;;;-5.00;99.90;;;;;;5261700;28;20090;-71
2022/01/07 07:02:38;;;;;;;0.60;0.60;;;-5.10;99.90;;;;;;5261710;28;20032;-71
2022/01/07 07:05:12;;;;;;;0.70;0.70;;;-5.10;99.90;;;;;;5260365;28;20082;-71
2022/01/07 07:07:43;;;;;;;0.57;0.57;;;-5.20;99.90;;;;;;5268596;28;20505;-71
2022/01/07 07:10:19;;;;;;;0.57;0.57;;;-5.10;99.90;;;;;;5277021;28;20039;-71
2022/01/07 07:12:50;;;;;;;0.60;0.60;;;-5.00;99.90;;;;;;5264167;28;20040;-72
2022/01/07 07:15:28;;;;;;;0.63;0.63;;;-5.00;99.90;;;;;;5243314;28;20249;-72
2022/01/07 07:18:03;;;;;;;0.60;0.60;;;-4.90;99.90;;;;;;5260455;28;20098;-72
2022/01/07 07:20:39;;;;;;;0.50;0.50;;;-4.80;99.90;;;;;;5260426;28;20040;-72
2022/01/07 07:23:12;;;;;;;0.50;0.50;;;-4.60;99.90;;;;;;5253606;28;20043;-72
2022/01/07 07:25:46;;;;;;;0.40;0.40;;;-4.40;99.90;;;;;;5262122;28;20032;-72
2022/01/07 07:28:20;;;;;;;0.63;0.63;;;-4.10;99.90;;;;;;5268188;28;20625;-72
2022/01/07 07:31:00;;;;;;;0.60;0.60;;;-3.90;99.90;;;;;;5261755;28;20097;-72
2022/01/07 07:36:27;;;;;;;0.60;0.60;;;-3.60;99.90;;;;;;5247220;28;20050;-72
2022/01/07 07:39:06;;;;;;;0.30;0.30;;;-3.40;99.90;;;;;;5260300;28;20039;-72
2022/01/07 07:41:42;;;;;;;0.70;0.70;;;-3.20;99.90;;;;;;5255124;28;20026;-72
2022/01/07 07:44:15;;;;;;;0.93;0.93;;;-3.00;99.90;;;;;;5259123;28;20031;-73
2022/01/07 07:46:47;;;;;;;0.80;0.80;;;-2.80;99.90;;;;;;5260308;28;20074;-73
2022/01/07 07:49:29;;;;;;;0.70;0.70;;;-2.70;99.90;;;;;;5264762;28;20085;-74
2022/01/07 07:52:00;;;;;;;0.80;0.80;;;-2.70;99.90;;;;;;5260348;28;20035;-74
2022/01/07 07:54:35;;;;;;;1.83;1.73;;;-2.70;99.90;;;;;;5259392;28;20032;-74
2022/01/07 07:57:12;;;;;;;0.60;0.60;;;-2.50;99.90;;;;;;5260163;28;20027;-73
2022/01/07 07:59:49;;;;;;;0.60;0.60;;;-2.20;99.90;;;;;;5261322;28;20031;-74
2022/01/07 08:02:23;;;;;;;0.63;0.63;;;-2.00;99.90;;;;;;5242151;28;20363;-74
2022/01/07 08:04:56;;;;;;;0.70;0.70;;;-1.90;99.90;;;;;;5232155;28;20054;-74
2022/01/07 08:07:32;;;;;;;1.00;1.00;;;-1.90;99.90;;;;;;5246809;28;20247;-73
2022/01/07 08:10:04;;;;;;;0.50;0.50;;;-1.80;99.90;;;;;;5273263;28;20028;-73
2022/01/07 08:18:34;;;;;;;0.63;0.63;;;-1.50;99.90;;;;;;5255750;28;20038;-73
2022/01/07 08:21:11;;;;;;;0.50;0.50;;;-1.30;99.90;;;;;;5258149;28;20113;-73
2022/01/07 08:23:44;;;;;;;0.50;0.50;;;-1.20;99.90;;;;;;5254348;28;20461;-73
2022/01/07 08:26:19;;;;;;;0.50;0.50;;;-1.00;99.90;;;;;;5240873;28;20085;-73
2022/01/07 08:28:55;;;;;;;0.50;0.50;;;-0.80;99.90;;;;;;5252677;28;20047;-73
2022/01/07 08:36:47;;;;;;;0.50;0.50;;;-0.30;99.90;;;;;;5255415;28;20032;-73
2022/01/07 08:39:21;;;;;;;0.50;0.50;;;-0.10;99.90;;;;;;5257822;28;20341;-73
2022/01/07 08:41:56;;;;;;;0.60;0.60;;;0.00;99.90;;;;;;5240850;28;20028;-73
2022/01/07 08:44:31;;;;;;;0.50;0.50;;;0.20;99.90;;;;;;5250579;28;20051;-73
2022/01/07 08:47:05;;;;;;;0.40;0.40;;;0.40;99.90;;;;;;5258993;28;20046;-73
2022/01/07 08:49:38;;;;;;;0.50;0.50;;;0.50;99.90;;;;;;5252315;28;20063;-73
2022/01/07 08:52:09;;;;;;;0.60;0.60;;;0.70;99.90;;;;;;5258144;28;20032;-73
2022/01/07 08:54:45;;;;;;;0.47;0.47;;;0.80;99.90;;;;;;5257288;28;20555;-73
2022/01/07 08:57:21;;;;;;;0.47;0.47;;;0.90;99.90;;;;;;5274358;28;20020;-73
2022/01/07 08:59:54;;;;;;;0.50;0.50;;;1.00;99.90;;;;;;5256293;28;20088;-73
2022/01/07 09:02:27;;;;;;;1.20;1.20;;;1.20;99.90;;;;;;5257649;28;20066;-73
2022/01/07 09:05:03;;;;;;;0.60;0.60;;;1.20;99.90;;;;;;5253504;28;20647;-73
2022/01/07 09:07:37;;;;;;;0.40;0.40;;;1.30;99.90;;;;;;5265935;28;20032;-73
2022/01/07 09:10:08;;;;;;;0.40;0.40;;;1.50;99.90;;;;;;5256825;28;20077;-73
2022/01/07 09:12:39;;;;;;;0.50;0.50;;;1.50;99.90;;;;;;5259891;28;20119;-73
2022/01/07 09:15:15;;;;;;;0.60;0.60;;;1.60;99.90;;;;;;5257775;28;20052;-73
2022/01/07 09:17:49;;;;;;;0.45;0.45;;;1.50;99.90;;;;;;5260357;28;20036;-73
2022/01/07 09:20:22;;;;;;;0.40;0.40;;;1.60;99.90;;;;;;5261948;28;20101;-73
2022/01/07 09:22:58;;;;;;;0.50;0.50;;;1.70;99.90;;;;;;5258995;28;20049;-73
2022/01/07 09:25:32;;;;;;;0.40;0.40;;;1.70;99.90;;;;;;5265964;28;20051;-73
2022/01/07 09:28:05;;;;;;;0.50;0.50;;;1.80;99.90;;;;;;5262195;28;20031;-73
2022/01/07 09:30:39;;;;;;;0.50;0.50;;;1.70;99.90;;;;;;5245617;28;20116;-73
2022/01/07 09:33:12;;;;;;;0.60;0.60;;;1.80;99.90;;;;;;5263892;28;20032;-73
2022/01/07 09:35:44;;;;;;;0.50;0.50;;;1.90;99.90;;;;;;5262162;28;20055;-73
2022/01/07 09:38:21;;;;;;;0.82;0.82;;;1.90;99.90;;;;;;5254170;28;20046;-73
2022/01/07 09:40:52;;;;;;;0.68;0.68;;;1.90;99.90;;;;;;5260627;28;20036;-73
2022/01/07 09:43:29;;;;;;;1.60;1.50;;;1.80;99.90;;;;;;5261507;28;20142;-73
2022/01/07 09:46:02;;;;;;;0.50;0.50;;;1.80;99.90;;;;;;5261128;28;20073;-73
2022/01/07 09:48:35;;;;;;;0.40;0.40;;;1.80;99.90;;;;;;5261448;28;20065;-73
2022/01/07 09:51:09;;;;;;;0.40;0.40;;;2.00;99.90;;;;;;5242501;28;20028;-73
2022/01/07 09:53:44;;;;;;;0.43;0.43;;;2.10;99.90;;;;;;5261385;28;20020;-72
2022/01/07 09:56:15;;;;;;;0.40;0.40;;;1.80;99.90;;;;;;5263950;28;20562;-72
2022/01/07 09:58:46;;;;;;;10.90;2.15;;;1.70;99.90;;;;;;5261168;28;20034;-73
2022/01/07 10:01:19;;;;;;;0.65;0.65;;;2.20;99.90;;;;;;5255506;28;20024;-72
2022/01/07 10:03:56;;;;;;;1.05;1.05;;;2.20;99.90;;;;;;5256540;28;20317;-73
2022/01/07 10:06:27;;;;;;;0.45;0.45;;;2.30;99.90;;;;;;5234510;28;20083;-74
2022/01/07 10:09:10;;;;;;;0.63;0.63;;;2.10;99.90;;;;;;5225505;28;20136;-74
2022/01/07 10:11:51;;;;;;;0.40;0.40;;;2.20;99.90;;;;;;5255405;28;20440;-75
2022/01/07 10:14:27;;;;;;;0.43;0.43;;;2.70;99.90;;;;;;5259433;28;20048;-75
2022/01/07 10:17:06;;;;;;;3.92;1.58;;;2.20;99.90;;;;;;5270956;28;20610;-75
2022/01/07 10:19:41;;;;;;;0.60;0.60;;;2.40;99.90;;;;;;5268506;28;20048;-75
2022/01/07 10:22:16;;;;;;;0.50;0.50;;;2.70;99.90;;;;;;5275247;28;20097;-77
2022/01/07 10:25:05;;;;;;;0.60;0.60;;;3.00;99.90;;;;;;5259776;28;20043;-76
2022/01/07 10:27:39;;;;;;;0.40;0.40;;;3.90;99.90;;;;;;5253656;28;20040;-77
2022/01/07 10:30:26;;;;;;;0.50;0.50;;;4.50;99.90;;;;;;5260153;28;20023;-78
2022/01/07 10:32:57;;;;;;;0.50;0.50;;;5.40;99.90;;;;;;5260753;28;20063;-77
2022/01/07 10:35:30;;;;;;;0.50;0.50;;;5.70;99.90;;;;;;5260568;28;20035;-77
2022/01/07 10:38:06;;;;;;;0.60;0.60;;;6.10;99.90;;;;;;5259956;28;20038;-77
2022/01/07 10:40:41;;;;;;;0.60;0.60;;;5.60;99.90;;;;;;5260236;28;20361;-77
2022/01/07 10:43:47;;;;;;;0.70;0.68;;;5.80;99.90;;;;;;5260509;28;20027;-76
2022/01/07 10:46:24;;;;;;;0.57;0.57;;;5.60;99.90;;;;;;5258028;28;20099;-76
2022/01/07 10:49:00;;;;;;;0.65;0.65;;;6.30;99.90;;;;;;5271392;28;20225;-76
2022/01/07 10:51:43;;;;;;;0.60;0.60;;;7.10;99.90;;;;;;5264176;28;20020;-74
2022/01/07 10:54:17;;;;;;;0.60;0.60;;;5.80;99.90;;;;;;5259841;28;20460;-75
2022/01/07 10:56:58;;;;;;;0.60;0.60;;;6.40;99.90;;;;;;5259488;28;20024;-74
2022/01/07 10:59:29;;;;;;;0.70;0.70;;;6.70;99.90;;;;;;5242813;28;20071;-74
2022/01/07 11:02:05;;;;;;;0.60;0.60;;;7.40;99.90;;;;;;5259755;28;20059;-74
2022/01/07 11:04:38;;;;;;;1.48;1.38;;;8.10;99.90;;;;;;5236381;28;20047;-73
2022/01/07 11:07:12;;;;;;;0.70;0.70;;;8.80;99.90;;;;;;5273580;28;20087;-73
2022/01/07 11:09:46;;;;;;;0.80;0.80;;;8.60;99.90;;;;;;5244614;28;20032;-72
2022/01/07 11:12:22;;;;;;;1.15;1.15;;;8.40;99.90;;;;;;5259736;28;20035;-74
2022/01/07 11:14:58;;;;;;;0.70;0.70;;;7.10;99.90;;;;;;5244231;28;20027;-73
2022/01/07 11:17:36;;;;;;;0.50;0.50;;;7.90;99.90;;;;;;5260682;28;20032;-73
2022/01/07 11:20:12;;;;;;;0.77;0.77;;;8.50;99.90;;;;;;5260022;28;20333;-73
2022/01/07 11:22:51;;;;;;;0.50;0.50;;;7.80;99.90;;;;;;5260385;28;20330;-73
2022/01/07 11:25:34;;;;;;;0.57;0.57;;;5.80;99.90;;;;;;5260508;28;20039;-73
2022/01/07 11:28:05;;;;;;;0.77;0.77;;;6.50;99.90;;;;;;5278922;27;20091;-73
2022/01/07 11:30:36;;;;;;;0.60;0.60;;;6.60;99.90;;;;;;5260606;28;20047;-73
2022/01/07 11:33:22;;;;;;;0.70;0.70;;;6.30;99.90;;;;;;5254241;28;20028;-73
2022/01/07 11:35:53;;;;;;;0.50;0.50;;;7.70;99.90;;;;;;5253033;28;20099;-73
2022/01/07 11:39:00;;;;;;;0.40;0.40;;;7.80;99.90;;;;;;5260531;28;20024;-74
2022/01/07 11:42:10;;;;;;;0.63;0.63;;;8.50;99.90;;;;;;5178170;28;20351;-73
2022/01/07 11:44:41;;;;;;;0.70;0.70;;;8.20;99.90;;;;;;5129145;28;20464;-73
2022/01/07 11:47:24;;;;;;;0.60;0.60;;;7.70;99.90;;;;;;5139756;28;20262;-73
2022/01/07 11:50:07;;;;;;;0.40;0.40;;;6.90;99.90;;;;;;5139544;28;20042;-73
2022/01/07 11:52:58;;;;;;;0.57;0.57;;;6.10;99.90;;;;;;5156043;28;20118;-73
2022/01/07 11:55:36;;;;;;;0.70;0.70;;;6.20;99.90;;;;;;5139933;28;20060;-73
2022/01/07 11:58:13;;;;;;;0.60;0.60;;;6.80;99.90;;;;;;5135423;28;20061;-73
2022/01/07 12:01:03;;;;;;;1.20;1.20;;;6.20;99.90;;;;;;5133241;28;20062;-73
2022/01/07 12:03:54;;;;;;;0.70;0.70;;;6.90;99.90;;;;;;5151363;28;20230;-73
2022/01/07 12:06:28;;;;;;;0.68;0.68;;;6.80;99.90;;;;;;5141781;28;20092;-74
2022/01/07 12:09:03;;;;;;;;;;;6.60;99.90;;;;;;5173035;28;20060;-73
2022/01/07 12:12:02;;;;;;;0.90;0.90;;;7.40;99.90;;;;;;5173322;28;20258;-73
2022/01/07 12:14:51;;;;;;;0.70;0.70;;;8.40;99.90;;;;;;5171562;28;20092;-74
2022/01/07 12:17:25;;;;;;;0.55;0.55;;;7.90;99.90;;;;;;5191706;28;20063;-74
2022/01/07 12:19:55;;;;;;;0.52;0.52;;;8.40;99.90;;;;;;5225650;28;20047;-73
2022/01/07 12:22:26;;;;;;;0.70;0.70;;;8.00;99.90;;;;;;5260889;28;20348;-73
2022/01/07 12:25:00;;;;;;;0.60;0.60;;;8.80;99.90;;;;;;5280339;28;20008;-75
2022/01/07 12:27:31;;;;;;;0.70;0.70;;;9.00;99.90;;;;;;5245319;28;20320;-74
2022/01/07 12:30:06;;;;;;;0.60;0.60;;;9.40;99.90;;;;;;5293364;28;20094;-74
2022/01/07 12:32:40;;;;;;;;;;;9.00;99.90;;;;;;5262347;28;20043;-73
2022/01/07 12:35:15;;;;;;;0.60;0.60;;;7.70;99.90;;;;;;5260979;28;19916;-73
2022/01/07 12:37:45;;;;;;;0.60;0.60;;;7.10;99.90;;;;;;5243670;28;20023;-73
2022/01/07 12:40:19;;;;;;;0.60;0.60;;;7.90;99.90;;;;;;5259696;28;20023;-74
2022/01/07 12:42:49;;;;;;;0.90;0.90;;;9.20;99.90;;;;;;5261443;28;20047;-73
2022/01/07 12:45:31;;;;;;;0.57;0.57;;;9.70;99.90;;;;;;5277883;28;20405;-73
2022/01/07 12:48:02;;;;;;;0.57;0.57;;;7.80;99.90;;;;;;5259685;28;20400;-73
2022/01/07 12:50:38;;;;;;;0.70;0.70;;;5.90;99.90;;;;;;5281180;28;20547;-73
2022/01/07 12:53:10;;;;;;;0.75;0.75;;;6.00;99.90;;;;;;5262615;28;20106;-74
2022/01/07 12:55:43;;;;;;;0.70;0.70;;;7.10;99.90;;;;;;5286494;27;20071;-73
2022/01/07 12:58:30;;;;;;;0.90;0.90;;;7.80;99.90;;;;;;5278052;28;20031;-73
2022/01/07 13:01:01;;;;;;;1.77;1.67;;;8.00;99.90;;;;;;5242009;28;20076;-74
2022/01/07 13:03:33;;;;;;;0.70;0.70;;;8.10;99.90;;;;;;5250998;28;20256;-75
2022/01/07 13:06:04;;;;;;;0.93;0.93;;;8.20;99.90;;;;;;5269173;28;20047;-73
2022/01/07 13:08:36;;;;;;;0.65;0.65;;;7.10;99.90;;;;;;5259671;28;20454;-74
2022/01/07 13:11:07;;;;;;;0.70;0.70;;;5.80;99.90;;;;;;5259596;28;20058;-74
2022/01/07 13:13:38;;;;;;;0.88;0.88;;;6.40;99.90;;;;;;5240630;28;20056;-76
2022/01/07 13:16:09;;;;;;;0.85;0.85;;;7.20;99.90;;;;;;5259181;28;20258;-73
2022/01/07 13:18:40;;;;;;;0.50;0.50;;;7.40;99.90;;;;;;5257149;28;20032;-74
2022/01/07 13:21:18;;;;;;;0.50;0.50;;;7.00;99.90;;;;;;5258880;28;20091;-73
2022/01/07 13:24:01;;;;;;;0.60;0.60;;;6.50;99.90;;;;;;5241110;28;20264;-74
2022/01/07 13:26:40;;;;;;;0.55;0.55;;;6.80;99.90;;;;;;5258219;28;20122;-73
2022/01/07 13:29:20;;;;;;;1.42;1.42;;;6.70;99.90;;;;;;5259610;28;20425;-73
2022/01/07 13:32:07;;;;;;;0.70;0.70;;;6.30;99.90;;;;;;5275214;28;20043;-73
2022/01/07 13:34:42;;;;;;;0.75;0.75;;;6.70;99.90;;;;;;5257634;28;20491;-72
2022/01/07 13:37:19;;;;;;;0.82;0.82;;;6.90;99.90;;;;;;5259281;28;20041;-74
2022/01/07 13:39:53;;;;;;;0.40;0.40;;;7.00;99.90;;;;;;5247259;28;20044;-74
2022/01/07 13:42:30;;;;;;;0.90;0.90;;;6.00;99.90;;;;;;5258297;28;20031;-74
2022/01/07 13:45:06;;;;;;;0.70;0.70;;;6.00;99.90;;;;;;5241206;28;20142;-76
2022/01/07 13:47:46;;;;;;;1.15;1.15;;;5.80;99.90;;;;;;5256372;28;20664;-74